Time;durP1;ratioP1;P1;durP2;ratioP2;P2;SDS_P1;SDS_P2;PMS_P1;PMS_P2;Temp;Humidity;BMP_temperature;BMP_pressure;BME280_temperature;BME280_humidity;BME280_pressure;Samples;Min_cycle;Max_cycle;Signal;HPM_P1;HPM_P2
2022/03/16 00:01:38;;;;;;;;;;;;;;;;;;5035682;28;19912;-51
2022/03/16 00:04:04;;;;;;;;;;;;;;;;;;5035537;28;19917;-51
2022/03/16 00:06:30;;;;;;;;;;;;;;;;;;5035656;28;19905;-52
2022/03/16 00:08:56;;;;;;;;;;;;;;;;;;5035656;28;19927;-52
2022/03/16 00:11:22;;;;;;;;;;;;;;;;;;5035532;28;19905;-52
2022/03/16 00:13:48;;;;;;;;;;;;;;;;;;5035521;28;19999;-51
2022/03/16 00:16:13;;;;;;;;;;;;;;;;;;5035458;28;19908;-51
2022/03/16 00:18:39;;;;;;;;;;;;;;;;;;5035467;28;19912;-51
2022/03/16 00:21:05;;;;;;;;;;;;;;;;;;5035361;28;19904;-53
2022/03/16 00:23:32;;;;;;;;;;;;;;;;;;5035341;28;19948;-51
2022/03/16 00:25:58;;;;;;;;;;;;;;;;;;5035541;28;20031;-53
2022/03/16 00:28:24;;;;;;;;;;;;;;;;;;5035212;28;19936;-53
2022/03/16 00:30:50;;;;;;;;;;;;;;;;;;5035474;28;19912;-54
2022/03/16 00:33:15;;;;;;;;;;;;;;;;;;5034903;28;19905;-53
2022/03/16 00:35:41;;;;;;;;;;;;;;;;;;5034632;28;19956;-51
2022/03/16 00:38:09;;;;;;;;;;;;;;;;;;5035011;28;19915;-54
2022/03/16 00:40:35;;;;;;;;;;;;;;;;;;5035055;28;19905;-54
2022/03/16 00:43:01;;;;;;;;;;;;;;;;;;5035008;28;20432;-53
2022/03/16 00:45:27;;;;;;;;;;;;;;;;;;5034905;28;19909;-51
2022/03/16 00:47:53;;;;;;;;;;;;;;;;;;5034897;28;20482;-52
2022/03/16 00:50:19;;;;;;;;;;;;;;;;;;5035065;28;19905;-53
2022/03/16 00:52:44;;;;;;;;;;;;;;;;;;5034914;28;19955;-52
2022/03/16 00:55:10;;;;;;;;;;;;;;;;;;5034815;28;19905;-53
2022/03/16 00:57:36;;;;;;;;;;;;;;;;;;5034566;28;19921;-53
2022/03/16 01:00:02;;;;;;;;;;;;;;;;;;5034624;28;19912;-53
2022/03/16 01:02:28;;;;;;;;;;;;;;;;;;5034328;28;20042;-51
2022/03/16 01:04:54;;;;;;;;;;;;;;;;;;5034557;28;20391;-50
2022/03/16 01:07:20;;;;;;;;;;;;;;;;;;5034461;28;19912;-51
2022/03/16 01:09:46;;;;;;;;;;;;;;;;;;5034485;28;19905;-53
2022/03/16 01:12:11;;;;;;;;;;;;;;;;;;5034539;28;19999;-53
2022/03/16 01:14:37;;;;;;;;;;;;;;;;;;5034390;28;19905;-52
2022/03/16 01:17:03;;;;;;;;;;;;;;;;;;5034263;28;20380;-51
2022/03/16 01:19:29;;;;;;;;;;;;;;;;;;5034456;28;19913;-52
2022/03/16 01:21:55;;;;;;;;;;;;;;;;;;5034519;28;19940;-52
2022/03/16 01:24:21;;;;;;;;;;;;;;;;;;5034179;28;19916;-52
2022/03/16 01:26:47;;;;;;;;;;;;;;;;;;5034178;28;19913;-53
2022/03/16 01:29:13;;;;;;;;;;;;;;;;;;5034169;28;19996;-52
2022/03/16 01:31:38;;;;;;;;;;;;;;;;;;5034089;28;19905;-51
2022/03/16 01:34:04;;;;;;;;;;;;;;;;;;5034015;28;19956;-52
2022/03/16 01:36:30;;;;;;;;;;;;;;;;;;5033859;28;19919;-52
2022/03/16 01:38:56;;;;;;;;;;;;;;;;;;5033913;28;19928;-53
2022/03/16 01:41:22;;;;;;;;;;;;;;;;;;5033871;28;19947;-53
2022/03/16 01:43:48;;;;;;;;;;;;;;;;;;5033817;28;19905;-52
2022/03/16 01:46:14;;;;;;;;;;;;;;;;;;5032735;28;20380;-52
2022/03/16 01:48:39;;;;;;;;;;;;;;;;;;5033793;28;19905;-51
2022/03/16 01:51:05;;;;;;;;;;;;;;;;;;5033796;28;19905;-54
2022/03/16 01:53:31;;;;;;;;;;;;;;;;;;5033626;28;19909;-51
2022/03/16 01:55:57;;;;;;;;;;;;;;;;;;5033536;28;19913;-51
2022/03/16 01:58:23;;;;;;;;;;;;;;;;;;5033825;28;19992;-52
2022/03/16 02:00:49;;;;;;;;;;;;;;;;;;5033508;28;19912;-53
2022/03/16 02:03:15;;;;;;;;;;;;;;;;;;5033341;28;19971;-53
2022/03/16 02:05:41;;;;;;;;;;;;;;;;;;5033755;28;20470;-50
2022/03/16 02:08:10;;;;;;;;;;;;;;;;;;5033482;28;19905;-54
2022/03/16 02:10:36;;;;;;;;;;;;;;;;;;5033734;28;19937;-51
2022/03/16 02:13:02;;;;;;;;;;;;;;;;;;5033332;28;19994;-54
2022/03/16 02:15:28;;;;;;;;;;;;;;;;;;5033259;28;19912;-52
2022/03/16 02:17:55;;;;;;;;;;;;;;;;;;5033241;28;19908;-54
2022/03/16 02:20:21;;;;;;;;;;;;;;;;;;5033271;28;19952;-52
2022/03/16 02:22:48;;;;;;;;;;;;;;;;;;5033148;28;19905;-52
2022/03/16 02:25:16;;;;;;;;;;;;;;;;;;5033272;28;20244;-53
2022/03/16 02:27:42;;;;;;;;;;;;;;;;;;5033133;28;19909;-53
2022/03/16 02:30:08;;;;;;;;;;;;;;;;;;5033045;28;19974;-51
2022/03/16 02:32:34;;;;;;;;;;;;;;;;;;5033281;28;19963;-51
2022/03/16 02:35:00;;;;;;;;;;;;;;;;;;5033006;28;20395;-51
2022/03/16 02:37:25;;;;;;;;;;;;;;;;;;5032850;28;19976;-51
2022/03/16 02:39:51;;;;;;;;;;;;;;;;;;5032867;28;19932;-51
2022/03/16 02:42:17;;;;;;;;;;;;;;;;;;5033178;28;19909;-51
2022/03/16 02:44:43;;;;;;;;;;;;;;;;;;5032835;28;19936;-51
2022/03/16 02:47:09;;;;;;;;;;;;;;;;;;5032834;28;19987;-52
2022/03/16 02:49:35;;;;;;;;;;;;;;;;;;5032815;28;20007;-53
2022/03/16 02:52:01;;;;;;;;;;;;;;;;;;5032779;28;19913;-53
2022/03/16 02:54:27;;;;;;;;;;;;;;;;;;5032754;28;19905;-51
2022/03/16 02:56:52;;;;;;;;;;;;;;;;;;5032269;28;20004;-50
2022/03/16 02:59:18;;;;;;;;;;;;;;;;;;5032730;28;20382;-51
2022/03/16 03:01:44;;;;;;;;;;;;;;;;;;5032749;28;19905;-51
2022/03/16 03:04:10;;;;;;;;;;;;;;;;;;5032718;28;19955;-55
2022/03/16 03:06:36;;;;;;;;;;;;;;;;;;5032591;28;19912;-57
2022/03/16 03:09:02;;;;;;;;;;;;;;;;;;5032555;28;19905;-57
2022/03/16 03:11:28;;;;;;;;;;;;;;;;;;5032533;28;19912;-55
2022/03/16 03:13:54;;;;;;;;;;;;;;;;;;5032561;28;19940;-56
2022/03/16 03:16:19;;;;;;;;;;;;;;;;;;5032473;28;19960;-56
2022/03/16 03:18:45;;;;;;;;;;;;;;;;;;5032532;28;19996;-57
2022/03/16 03:21:12;;;;;;;;;;;;;;;;;;5032562;28;19916;-57
2022/03/16 03:23:37;;;;;;;;;;;;;;;;;;5032736;28;19952;-57
2022/03/16 03:26:03;;;;;;;;;;;;;;;;;;5032423;28;19960;-57
2022/03/16 03:28:29;;;;;;;;;;;;;;;;;;5032503;28;19916;-57
2022/03/16 03:30:55;;;;;;;;;;;;;;;;;;5032360;28;20310;-57
2022/03/16 03:33:21;;;;;;;;;;;;;;;;;;5032412;28;19909;-56
2022/03/16 03:35:48;;;;;;;;;;;;;;;;;;5032357;28;19909;-57
2022/03/16 03:38:14;;;;;;;;;;;;;;;;;;5032700;28;19992;-57
2022/03/16 03:40:40;;;;;;;;;;;;;;;;;;5032714;28;19952;-57
2022/03/16 03:43:06;;;;;;;;;;;;;;;;;;5032345;28;19905;-56
2022/03/16 03:45:32;;;;;;;;;;;;;;;;;;5032298;28;20286;-56
2022/03/16 03:47:58;;;;;;;;;;;;;;;;;;5032499;28;19943;-57
2022/03/16 03:50:24;;;;;;;;;;;;;;;;;;5032262;28;20355;-55
2022/03/16 03:52:49;;;;;;;;;;;;;;;;;;5032237;28;19905;-56
2022/03/16 03:55:16;;;;;;;;;;;;;;;;;;5032184;28;19989;-57
2022/03/16 03:57:42;;;;;;;;;;;;;;;;;;5032512;28;19932;-57
2022/03/16 04:00:07;;;;;;;;;;;;;;;;;;5032029;28;19904;-56
2022/03/16 04:02:33;;;;;;;;;;;;;;;;;;5031934;28;19968;-57
2022/03/16 04:04:59;;;;;;;;;;;;;;;;;;5032054;28;20011;-57
2022/03/16 04:07:25;;;;;;;;;;;;;;;;;;5032061;28;19905;-57
2022/03/16 04:09:53;;;;;;;;;;;;;;;;;;5033886;28;19979;-53
2022/03/16 04:12:19;;;;;;;;;;;;;;;;;;5035640;28;19909;-57
2022/03/16 04:14:45;;;;;;;;;;;;;;;;;;5035606;28;19905;-57
2022/03/16 04:17:11;;;;;;;;;;;;;;;;;;5035708;28;19919;-55
2022/03/16 04:19:36;;;;;;;;;;;;;;;;;;5035523;28;19906;-56
2022/03/16 04:22:02;;;;;;;;;;;;;;;;;;5035381;28;19912;-56
2022/03/16 04:24:28;;;;;;;;;;;;;;;;;;5035353;28;19992;-57
2022/03/16 04:26:54;;;;;;;;;;;;;;;;;;5035281;28;19905;-56
2022/03/16 04:29:20;;;;;;;;;;;;;;;;;;5035263;28;19905;-56
2022/03/16 04:31:46;;;;;;;;;;;;;;;;;;5035192;28;19912;-54
2022/03/16 04:34:12;;;;;;;;;;;;;;;;;;5035260;28;20007;-56
2022/03/16 04:36:38;;;;;;;;;;;;;;;;;;5035058;28;20399;-53
2022/03/16 04:39:03;;;;;;;;;;;;;;;;;;5034996;28;19957;-56
2022/03/16 04:41:29;;;;;;;;;;;;;;;;;;5035016;28;19916;-56
2022/03/16 04:43:55;;;;;;;;;;;;;;;;;;5035045;28;19952;-55
2022/03/16 04:46:22;;;;;;;;;;;;;;;;;;5034942;28;19908;-55
2022/03/16 04:48:47;;;;;;;;;;;;;;;;;;5035175;28;19958;-55
2022/03/16 04:51:13;;;;;;;;;;;;;;;;;;5034910;28;20372;-57
2022/03/16 04:53:39;;;;;;;;;;;;;;;;;;5034862;28;19912;-57
2022/03/16 04:56:05;;;;;;;;;;;;;;;;;;5034733;28;19960;-55
2022/03/16 04:58:32;;;;;;;;;;;;;;;;;;5034683;28;19913;-56
2022/03/16 05:00:57;;;;;;;;;;;;;;;;;;5034735;28;19912;-56
2022/03/16 05:03:23;;;;;;;;;;;;;;;;;;5034318;28;20319;-56
2022/03/16 05:05:49;;;;;;;;;;;;;;;;;;5034869;28;19905;-57
2022/03/16 05:08:15;;;;;;;;;;;;;;;;;;5034507;28;19905;-55
2022/03/16 05:10:41;;;;;;;;;;;;;;;;;;5034519;28;19916;-55
2022/03/16 05:13:07;;;;;;;;;;;;;;;;;;5034436;28;19905;-57
2022/03/16 05:15:33;;;;;;;;;;;;;;;;;;5034610;28;20279;-56
2022/03/16 05:17:59;;;;;;;;;;;;;;;;;;5034325;28;19913;-56
2022/03/16 05:20:25;;;;;;;;;;;;;;;;;;5033973;28;20015;-56
2022/03/16 05:22:51;;;;;;;;;;;;;;;;;;5033008;28;19905;-55
2022/03/16 05:25:16;;;;;;;;;;;;;;;;;;5034190;28;20326;-57
2022/03/16 05:27:42;;;;;;;;;;;;;;;;;;5034102;28;20370;-56
2022/03/16 05:30:08;;;;;;;;;;;;;;;;;;5034180;28;19944;-55
2022/03/16 05:32:34;;;;;;;;;;;;;;;;;;5034319;28;19920;-55
2022/03/16 05:35:00;;;;;;;;;;;;;;;;;;5034051;28;19905;-56
2022/03/16 05:37:26;;;;;;;;;;;;;;;;;;5033913;28;19960;-56
2022/03/16 05:39:52;;;;;;;;;;;;;;;;;;5033931;28;20019;-56
2022/03/16 05:42:18;;;;;;;;;;;;;;;;;;5033875;28;19956;-55
2022/03/16 05:44:44;;;;;;;;;;;;;;;;;;5033831;28;19952;-56
2022/03/16 05:47:11;;;;;;;;;;;;;;;;;;5033881;28;19932;-55
2022/03/16 05:49:37;;;;;;;;;;;;;;;;;;5033862;28;20004;-56
2022/03/16 05:52:03;;;;;;;;;;;;;;;;;;5033708;28;19999;-57
2022/03/16 05:54:29;;;;;;;;;;;;;;;;;;5033624;28;19912;-57
2022/03/16 05:56:55;;;;;;;;;;;;;;;;;;5033530;28;20000;-57
2022/03/16 05:59:21;;;;;;;;;;;;;;;;;;5033563;28;19905;-57
2022/03/16 06:01:46;;;;;;;;;;;;;;;;;;5033288;28;19944;-57
2022/03/16 06:04:12;;;;;;;;;;;;;;;;;;5033764;28;19920;-57
2022/03/16 06:06:38;;;;;;;;;;;;;;;;;;5033494;28;20390;-56
2022/03/16 06:09:05;;;;;;;;;;;;;;;;;;5033481;28;19912;-58
2022/03/16 06:11:31;;;;;;;;;;;;;;;;;;5033426;28;20058;-54
2022/03/16 06:13:56;;;;;;;;;;;;;;;;;;5033547;28;20368;-57
2022/03/16 06:16:22;;;;;;;;;;;;;;;;;;5033188;28;19917;-58
2022/03/16 06:18:48;;;;;;;;;;;;;;;;;;5033225;28;19943;-58
2022/03/16 06:21:14;;;;;;;;;;;;;;;;;;5033510;28;19905;-55
2022/03/16 06:23:40;;;;;;;;;;;;;;;;;;5033142;28;19905;-56
2022/03/16 06:26:06;;;;;;;;;;;;;;;;;;5033164;28;19944;-55
2022/03/16 06:28:32;;;;;;;;;;;;;;;;;;5033398;28;19905;-57
2022/03/16 06:30:58;;;;;;;;;;;;;;;;;;5033021;28;19931;-56
2022/03/16 06:33:24;;;;;;;;;;;;;;;;;;5032414;28;19944;-55
2022/03/16 06:35:50;;;;;;;;;;;;;;;;;;5032878;28;20346;-56
2022/03/16 06:38:16;;;;;;;;;;;;;;;;;;5032916;28;19905;-57
2022/03/16 06:40:42;;;;;;;;;;;;;;;;;;5032840;28;19908;-57
2022/03/16 06:43:07;;;;;;;;;;;;;;;;;;5033240;28;19912;-55
2022/03/16 06:45:33;;;;;;;;;;;;;;;;;;5032883;28;19905;-55
2022/03/16 06:47:59;;;;;;;;;;;;;;;;;;5032748;28;19905;-56
2022/03/16 06:50:25;;;;;;;;;;;;;;;;;;5032846;28;20322;-56
2022/03/16 06:52:51;;;;;;;;;;;;;;;;;;5032733;28;19909;-55
2022/03/16 06:55:17;;;;;;;;;;;;;;;;;;5032778;28;19913;-54
2022/03/16 06:57:43;;;;;;;;;;;;;;;;;;5032856;28;19913;-58
2022/03/16 07:00:09;;;;;;;;;;;;;;;;;;5032685;28;19905;-59
2022/03/16 07:02:35;;;;;;;;;;;;;;;;;;5032757;28;19924;-59
2022/03/16 07:05:00;;;;;;;;;;;;;;;;;;5032642;28;19905;-59
2022/03/16 07:07:27;;;;;;;;;;;;;;;;;;5032594;28;19905;-59
2022/03/16 07:09:53;;;;;;;;;;;;;;;;;;5032496;28;20268;-60
2022/03/16 07:12:19;;;;;;;;;;;;;;;;;;5032547;28;20107;-59
2022/03/16 07:14:44;;;;;;;;;;;;;;;;;;5032502;28;19983;-60
2022/03/16 07:17:10;;;;;;;;;;;;;;;;;;5032694;28;19956;-59
2022/03/16 07:19:36;;;;;;;;;;;;;;;;;;5032575;28;19912;-60
2022/03/16 07:22:02;;;;;;;;;;;;;;;;;;5032406;28;19905;-55
2022/03/16 07:24:28;;;;;;;;;;;;;;;;;;5032425;28;19992;-55
2022/03/16 07:26:55;;;;;;;;;;;;;;;;;;5032411;28;19912;-56
2022/03/16 07:29:21;;;;;;;;;;;;;;;;;;5032430;28;19959;-55
2022/03/16 07:31:47;;;;;;;;;;;;;;;;;;5032338;28;20306;-55
2022/03/16 07:34:12;;;;;;;;;;;;;;;;;;5032317;28;19955;-56
2022/03/16 07:36:39;;;;;;;;;;;;;;;;;;5032294;28;19913;-56
2022/03/16 07:39:04;;;;;;;;;;;;;;;;;;5032402;28;19912;-60
2022/03/16 07:41:30;;;;;;;;;;;;;;;;;;5032304;28;20007;-61
2022/03/16 07:43:56;;;;;;;;;;;;;;;;;;5034546;28;19905;-60
2022/03/16 07:46:22;;;;;;;;;;;;;;;;;;5036299;28;20327;-61
2022/03/16 07:48:48;;;;;;;;;;;;;;;;;;5035996;28;19905;-61
2022/03/16 07:51:14;;;;;;;;;;;;;;;;;;5036044;28;19952;-61
2022/03/16 07:53:40;;;;;;;;;;;;;;;;;;5035879;28;19905;-61
2022/03/16 07:56:05;;;;;;;;;;;;;;;;;;5035618;28;19909;-51
2022/03/16 07:58:31;;;;;;;;;;;;;;;;;;5035882;28;19913;-50
2022/03/16 08:00:57;;;;;;;;;;;;;;;;;;5035792;28;19948;-50
2022/03/16 08:03:23;;;;;;;;;;;;;;;;;;5035490;28;20338;-52
2022/03/16 08:05:49;;;;;;;;;;;;;;;;;;5035964;28;19944;-50
2022/03/16 08:08:16;;;;;;;;;;;;;;;;;;5035616;28;19994;-51
2022/03/16 08:10:42;;;;;;;;;;;;;;;;;;5035642;28;19909;-50
2022/03/16 08:13:08;;;;;;;;;;;;;;;;;;5035482;28;19913;-50
2022/03/16 08:15:34;;;;;;;;;;;;;;;;;;5035636;28;20264;-58
2022/03/16 08:18:00;;;;;;;;;;;;;;;;;;5035701;28;20318;-57
2022/03/16 08:20:26;;;;;;;;;;;;;;;;;;5035473;28;19905;-57
2022/03/16 08:22:56;;;;;;;;;;;;;;;;;;5035673;28;19978;-57
2022/03/16 08:25:22;;;;;;;;;;;;;;;;;;5035349;28;20272;-57
2022/03/16 08:27:48;;;;;;;;;;;;;;;;;;5035361;28;19959;-57
2022/03/16 08:30:15;;;;;;;;;;;;;;;;;;5035258;28;19951;-56
2022/03/16 08:32:41;;;;;;;;;;;;;;;;;;5035286;28;19955;-58
2022/03/16 08:35:07;;;;;;;;;;;;;;;;;;5035233;28;19905;-58
2022/03/16 08:37:33;;;;;;;;;;;;;;;;;;5035026;28;20363;-58
2022/03/16 08:39:59;;;;;;;;;;;;;;;;;;5035101;28;19996;-58
2022/03/16 08:42:25;;;;;;;;;;;;;;;;;;5035050;28;19912;-56
2022/03/16 08:44:52;;;;;;;;;;;;;;;;;;5034986;28;20368;-57
2022/03/16 08:47:20;;;;;;;;;;;;;;;;;;5035184;28;19912;-58
2022/03/16 08:49:46;;;;;;;;;;;;;;;;;;5035186;28;20123;-58
2022/03/16 08:52:12;;;;;;;;;;;;;;;;;;5034901;28;20032;-57
2022/03/16 08:54:38;;;;;;;;;;;;;;;;;;5034125;28;19905;-58
2022/03/16 08:57:04;;;;;;;;;;;;;;;;;;5034743;28;19932;-59
2022/03/16 08:59:30;;;;;;;;;;;;;;;;;;5035050;28;19951;-58
2022/03/16 09:01:56;;;;;;;;;;;;;;;;;;5034465;28;19987;-57
2022/03/16 09:04:22;;;;;;;;;;;;;;;;;;5034609;28;19917;-58
2022/03/16 09:06:50;;;;;;;;;;;;;;;;;;5034636;28;19963;-59
2022/03/16 09:09:16;;;;;;;;;;;;;;;;;;5034822;28;19967;-59
2022/03/16 09:11:42;;;;;;;;;;;;;;;;;;5034535;28;20360;-57
2022/03/16 09:14:08;;;;;;;;;;;;;;;;;;5034461;28;19905;-57
2022/03/16 09:16:34;;;;;;;;;;;;;;;;;;5034575;28;19920;-57
2022/03/16 09:19:00;;;;;;;;;;;;;;;;;;5034307;28;19905;-55
2022/03/16 09:21:25;;;;;;;;;;;;;;;;;;5034284;28;19944;-52
2022/03/16 09:23:52;;;;;;;;;;;;;;;;;;5034204;28;19950;-54
2022/03/16 09:26:20;;;;;;;;;;;;;;;;;;5034502;28;19928;-54
2022/03/16 09:28:46;;;;;;;;;;;;;;;;;;5034200;28;19949;-54
2022/03/16 09:31:12;;;;;;;;;;;;;;;;;;5033804;28;20371;-56
2022/03/16 09:33:38;;;;;;;;;;;;;;;;;;5033625;28;19951;-58
2022/03/16 09:36:08;;;;;;;;;;;;;;;;;;5033716;28;19913;-57
2022/03/16 09:38:33;;;;;;;;;;;;;;;;;;5033927;28;19913;-56
2022/03/16 09:41:01;;;;;;;;;;;;;;;;;;5033789;28;19914;-59
2022/03/16 09:43:27;;;;;;;;;;;;;;;;;;5033866;28;20394;-59
2022/03/16 09:45:53;;;;;;;;;;;;;;;;;;5033879;28;19905;-57
2022/03/16 09:48:18;;;;;;;;;;;;;;;;;;5033859;28;19992;-58
2022/03/16 09:50:44;;;;;;;;;;;;;;;;;;5034030;28;19905;-58
2022/03/16 09:53:11;;;;;;;;;;;;;;;;;;5033715;28;19905;-59
2022/03/16 09:55:37;;;;;;;;;;;;;;;;;;5033937;28;19912;-59
2022/03/16 09:58:03;;;;;;;;;;;;;;;;;;5033545;28;20283;-60
2022/03/16 10:00:30;;;;;;;;;;;;;;;;;;5033540;28;19909;-59
2022/03/16 10:02:56;;;;;;;;;;;;;;;;;;5033288;28;19917;-59
2022/03/16 10:05:22;;;;;;;;;;;;;;;;;;5033771;28;20315;-59
2022/03/16 10:07:48;;;;;;;;;;;;;;;;;;5032521;28;20371;-57
2022/03/16 10:13:14;;;;;;;;;;;;;;;;;;5033303;28;20431;-59
2022/03/16 10:15:42;;;;;;;;;;;;;;;;;;5031938;28;20391;-58
2022/03/16 10:18:08;;;;;;;;;;;;;;;;;;5033478;28;19964;-57
2022/03/16 10:20:34;;;;;;;;;;;;;;;;;;5033330;28;19943;-57
2022/03/16 10:23:00;;;;;;;;;;;;;;;;;;5033172;28;19924;-58
2022/03/16 10:25:25;;;;;;;;;;;;;;;;;;5033136;28;19928;-57
2022/03/16 10:27:52;;;;;;;;;;;;;;;;;;5033293;28;19908;-58
2022/03/16 10:30:20;;;;;;;;;;;;;;;;;;5033316;28;19905;-58
2022/03/16 10:32:46;;;;;;;;;;;;;;;;;;5032953;28;19905;-58
2022/03/16 10:35:11;;;;;;;;;;;;;;;;;;5032947;28;19916;-58
2022/03/16 10:37:37;;;;;;;;;;;;;;;;;;5032847;28;20008;-58
2022/03/16 10:40:15;;;;;;;;;;;;;;;;;;5032929;28;19905;-58
2022/03/16 10:48:10;;;;;;;;;;;;;;;;;;5032832;28;19912;-58
2022/03/16 10:50:39;;;;;;;;;;;;;;;;;;5033017;28;20359;-58
2022/03/16 10:53:05;;;;;;;;;;;;;;;;;;5032998;28;19909;-56
2022/03/16 10:55:31;;;;;;;;;;;;;;;;;;5032749;28;19912;-58
2022/03/16 10:57:57;;;;;;;;;;;;;;;;;;5032505;28;19913;-58
2022/03/16 11:00:22;;;;;;;;;;;;;;;;;;5032731;28;20379;-58
2022/03/16 11:02:48;;;;;;;;;;;;;;;;;;5032385;28;19921;-58
2022/03/16 11:05:18;;;;;;;;;;;;;;;;;;5032882;28;19905;-58
2022/03/16 11:07:44;;;;;;;;;;;;;;;;;;5032654;28;19936;-58
2022/03/16 11:10:10;;;;;;;;;;;;;;;;;;5032589;28;19944;-57
2022/03/16 11:15:20;;;;;;;;;;;;;;;;;;5032644;28;20394;-58
2022/03/16 11:17:46;;;;;;;;;;;;;;;;;;5032640;28;19949;-57
2022/03/16 11:20:12;;;;;;;;;;;;;;;;;;5036544;28;19967;-57
2022/03/16 11:24:15;;;;;;;;;;;;;;;;;;5036512;28;19905;-57
2022/03/16 11:25:24;;;;;;;;;;;;;;;;;;5036450;28;20000;-58
2022/03/16 11:27:51;;;;;;;;;;;;;;;;;;5036381;28;20402;-58
2022/03/16 11:30:17;;;;;;;;;;;;;;;;;;5036396;28;19912;-58
2022/03/16 11:32:43;;;;;;;;;;;;;;;;;;5036592;28;19905;-58
2022/03/16 11:35:09;;;;;;;;;;;;;;;;;;5036189;28;19905;-58
2022/03/16 11:37:35;;;;;;;;;;;;;;;;;;5036455;28;19967;-57
2022/03/16 11:40:01;;;;;;;;;;;;;;;;;;5036149;28;19996;-51
2022/03/16 11:42:27;;;;;;;;;;;;;;;;;;5036107;28;19905;-51
2022/03/16 11:44:53;;;;;;;;;;;;;;;;;;5036306;28;19992;-51
2022/03/16 11:47:22;;;;;;;;;;;;;;;;;;5035956;28;19986;-51
2022/03/16 11:49:47;;;;;;;;;;;;;;;;;;5036031;28;19912;-50
2022/03/16 11:52:13;;;;;;;;;;;;;;;;;;5035803;28;19905;-52
2022/03/16 11:54:39;;;;;;;;;;;;;;;;;;5036099;28;20433;-53
2022/03/16 11:57:05;;;;;;;;;;;;;;;;;;5035716;28;19913;-56
2022/03/16 11:59:31;;;;;;;;;;;;;;;;;;5035635;28;19908;-55
2022/03/16 12:02:01;;;;;;;;;;;;;;;;;;5035707;28;19905;-56
2022/03/16 12:04:27;;;;;;;;;;;;;;;;;;5035721;28;20272;-53
2022/03/16 12:06:52;;;;;;;;;;;;;;;;;;5035506;28;19905;-54
2022/03/16 12:09:20;;;;;;;;;;;;;;;;;;5035505;28;19905;-56
2022/03/16 12:14:31;;;;;;;;;;;;;;;;;;5035498;28;19971;-54
2022/03/16 12:16:56;;;;;;;;;;;;;;;;;;5035259;28;19932;-55
2022/03/16 12:19:22;;;;;;;;;;;;;;;;;;5035313;28;19905;-52
2022/03/16 12:21:48;;;;;;;;;;;;;;;;;;5035312;28;20074;-55
2022/03/16 12:29:44;;;;;;;;;;;;;;;;;;5034070;28;20435;-55
2022/03/16 12:32:10;;;;;;;;;;;;;;;;;;5035059;28;19912;-56
2022/03/16 12:34:36;;;;;;;;;;;;;;;;;;5035141;28;19905;-54
2022/03/16 12:37:03;;;;;;;;;;;;;;;;;;5034894;28;19917;-55
2022/03/16 12:39:29;;;;;;;;;;;;;;;;;;5034383;28;19912;-56
2022/03/16 12:44:45;;;;;;;;;;;;;;;;;;5034709;28;19920;-55
2022/03/16 12:47:11;;;;;;;;;;;;;;;;;;5034857;28;19949;-55
2022/03/16 12:49:37;;;;;;;;;;;;;;;;;;5034858;28;20311;-54
2022/03/16 12:52:03;;;;;;;;;;;;;;;;;;5034756;28;19996;-54
2022/03/16 12:54:29;;;;;;;;;;;;;;;;;;5034735;28;19916;-55
2022/03/16 12:56:55;;;;;;;;;;;;;;;;;;5034552;28;20334;-54
2022/03/16 12:59:21;;;;;;;;;;;;;;;;;;5033425;28;20374;-55
2022/03/16 13:01:47;;;;;;;;;;;;;;;;;;5034443;28;19909;-51
2022/03/16 13:04:16;;;;;;;;;;;;;;;;;;5034505;28;19936;-51
2022/03/16 13:06:42;;;;;;;;;;;;;;;;;;5034421;28;20007;-51
2022/03/16 13:09:08;;;;;;;;;;;;;;;;;;5034408;28;19948;-51
2022/03/16 13:11:34;;;;;;;;;;;;;;;;;;5034419;28;19905;-60
2022/03/16 13:14:01;;;;;;;;;;;;;;;;;;5034387;28;20004;-57
2022/03/16 13:16:27;;;;;;;;;;;;;;;;;;5034235;28;19975;-55
2022/03/16 13:18:53;;;;;;;;;;;;;;;;;;5034192;28;20364;-55
2022/03/16 13:21:19;;;;;;;;;;;;;;;;;;5034205;28;19905;-54
2022/03/16 13:23:46;;;;;;;;;;;;;;;;;;5033962;28;20050;-56
2022/03/16 13:26:12;;;;;;;;;;;;;;;;;;5033948;28;19905;-57
2022/03/16 13:28:38;;;;;;;;;;;;;;;;;;5033946;28;19905;-50
2022/03/16 13:31:04;;;;;;;;;;;;;;;;;;5033784;28;20248;-52
2022/03/16 13:33:30;;;;;;;;;;;;;;;;;;5033909;28;19998;-52
2022/03/16 13:35:56;;;;;;;;;;;;;;;;;;5033798;28;19905;-51
2022/03/16 13:38:22;;;;;;;;;;;;;;;;;;5033741;28;19920;-52
2022/03/16 13:40:48;;;;;;;;;;;;;;;;;;5033467;28;19905;-52
2022/03/16 13:43:15;;;;;;;;;;;;;;;;;;5033574;28;20019;-50
2022/03/16 13:45:41;;;;;;;;;;;;;;;;;;5033274;28;20003;-51
2022/03/16 13:48:08;;;;;;;;;;;;;;;;;;5033266;28;20007;-50
2022/03/16 13:50:34;;;;;;;;;;;;;;;;;;5033474;28;19959;-52
2022/03/16 13:53:00;;;;;;;;;;;;;;;;;;5033475;28;19912;-51
2022/03/16 13:55:25;;;;;;;;;;;;;;;;;;5033346;28;19959;-51
2022/03/16 13:57:51;;;;;;;;;;;;;;;;;;5033193;28;19956;-52
2022/03/16 14:00:17;;;;;;;;;;;;;;;;;;5033325;28;19963;-51
2022/03/16 14:02:43;;;;;;;;;;;;;;;;;;5033169;28;19917;-52
2022/03/16 14:05:09;;;;;;;;;;;;;;;;;;5033488;28;19905;-51
2022/03/16 14:07:35;;;;;;;;;;;;;;;;;;5033376;28;19905;-52
2022/03/16 14:10:01;;;;;;;;;;;;;;;;;;5033261;28;20004;-52
2022/03/16 14:12:27;;;;;;;;;;;;;;;;;;5033245;28;19912;-51
2022/03/16 14:14:53;;;;;;;;;;;;;;;;;;5033200;28;20411;-53
2022/03/16 14:17:20;;;;;;;;;;;;;;;;;;5033136;28;20055;-53
2022/03/16 14:19:46;;;;;;;;;;;;;;;;;;5033091;28;19916;-52
2022/03/16 14:22:18;;;;;;;;;;;;;;;;;;5033402;28;19909;-51
2022/03/16 14:24:44;;;;;;;;;;;;;;;;;;5033313;28;19912;-52
2022/03/16 14:27:18;;;;;;;;;;;;;;;;;;5032932;28;19905;-52
2022/03/16 14:29:44;;;;;;;;;;;;;;;;;;5032927;28;19905;-51
2022/03/16 14:32:10;;;;;;;;;;;;;;;;;;5033111;28;19912;-51
2022/03/16 14:34:36;;;;;;;;;;;;;;;;;;5032927;28;19951;-51
2022/03/16 14:37:02;;;;;;;;;;;;;;;;;;5032786;28;19917;-51
2022/03/16 14:39:27;;;;;;;;;;;;;;;;;;5033058;28;19911;-51
2022/03/16 14:41:54;;;;;;;;;;;;;;;;;;5032856;28;19909;-51
2022/03/16 14:44:20;;;;;;;;;;;;;;;;;;5032765;28;19905;-52
2022/03/16 14:46:46;;;;;;;;;;;;;;;;;;5032593;28;19905;-52
2022/03/16 14:49:11;;;;;;;;;;;;;;;;;;5032621;28;19909;-50
2022/03/16 14:51:37;;;;;;;;;;;;;;;;;;5032708;28;20024;-56
2022/03/16 14:54:03;;;;;;;;;;;;;;;;;;5032087;28;19905;-52
2022/03/16 14:56:29;;;;;;;;;;;;;;;;;;5032449;28;20015;-52
2022/03/16 14:58:55;;;;;;;;;;;;;;;;;;5032351;28;20367;-52
2022/03/16 15:01:21;;;;;;;;;;;;;;;;;;5032527;28;19912;-51
2022/03/16 15:03:47;;;;;;;;;;;;;;;;;;5032165;28;19917;-52
2022/03/16 15:06:13;;;;;;;;;;;;;;;;;;5032738;28;20062;-53
2022/03/16 15:08:38;;;;;;;;;;;;;;;;;;5032374;28;20311;-51
2022/03/16 15:11:04;;;;;;;;;;;;;;;;;;5032279;28;19905;-52
2022/03/16 15:13:30;;;;;;;;;;;;;;;;;;5032359;28;19928;-52
2022/03/16 15:15:56;;;;;;;;;;;;;;;;;;5032197;28;19996;-51
2022/03/16 15:18:22;;;;;;;;;;;;;;;;;;5032490;28;20048;-52
2022/03/16 15:20:48;;;;;;;;;;;;;;;;;;5032359;28;20343;-55
2022/03/16 15:23:14;;;;;;;;;;;;;;;;;;5032257;28;20329;-53
2022/03/16 15:25:40;;;;;;;;;;;;;;;;;;5032263;28;19905;-51
2022/03/16 15:28:06;;;;;;;;;;;;;;;;;;5032148;28;19999;-52
2022/03/16 15:30:32;;;;;;;;;;;;;;;;;;5032502;28;19963;-52
2022/03/16 15:32:58;;;;;;;;;;;;;;;;;;5032282;28;19909;-53
2022/03/16 15:35:24;;;;;;;;;;;;;;;;;;5032229;28;20296;-52
2022/03/16 15:37:53;;;;;;;;;;;;;;;;;;5032449;28;19975;-56
2022/03/16 15:43:03;;;;;;;;;;;;;;;;;;5032260;28;20004;-56
2022/03/16 15:45:29;;;;;;;;;;;;;;;;;;5032453;28;19948;-56
2022/03/16 15:47:55;;;;;;;;;;;;;;;;;;5032149;28;19905;-57
2022/03/16 15:50:23;;;;;;;;;;;;;;;;;;5032148;28;19912;-57
2022/03/16 15:52:48;;;;;;;;;;;;;;;;;;5032395;28;19905;-57
2022/03/16 15:55:14;;;;;;;;;;;;;;;;;;5032096;28;19912;-55
2022/03/16 15:57:44;;;;;;;;;;;;;;;;;;5032027;28;19917;-58
2022/03/16 16:00:11;;;;;;;;;;;;;;;;;;5032005;28;19912;-57
2022/03/16 16:02:37;;;;;;;;;;;;;;;;;;5031784;28;19917;-55
2022/03/16 16:05:03;;;;;;;;;;;;;;;;;;5033863;28;19928;-57
2022/03/16 16:07:31;;;;;;;;;;;;;;;;;;5035807;28;20334;-58
2022/03/16 16:10:01;;;;;;;;;;;;;;;;;;5035501;28;19951;-58
2022/03/16 16:12:27;;;;;;;;;;;;;;;;;;5035598;28;19905;-57
2022/03/16 16:14:55;;;;;;;;;;;;;;;;;;5035519;28;19951;-56
2022/03/16 16:17:21;;;;;;;;;;;;;;;;;;5035388;28;19913;-57
2022/03/16 16:19:47;;;;;;;;;;;;;;;;;;5035399;28;20382;-56
2022/03/16 16:22:13;;;;;;;;;;;;;;;;;;5035337;28;19909;-56
2022/03/16 16:24:39;;;;;;;;;;;;;;;;;;5035623;28;19905;-57
2022/03/16 16:27:05;;;;;;;;;;;;;;;;;;5035216;28;20279;-57
2022/03/16 16:29:46;;;;;;;;;;;;;;;;;;5035141;28;19905;-57
2022/03/16 16:32:12;;;;;;;;;;;;;;;;;;5035153;28;19999;-57
2022/03/16 16:34:38;;;;;;;;;;;;;;;;;;5034973;28;20010;-56
2022/03/16 16:37:04;;;;;;;;;;;;;;;;;;5034768;28;19967;-57
2022/03/16 16:39:30;;;;;;;;;;;;;;;;;;5034899;28;20030;-56
2022/03/16 16:43:09;;;;;;;;;;;;;;;;;;5034689;28;19951;-57
2022/03/16 16:44:42;;;;;;;;;;;;;;;;;;5034585;28;19909;-56
2022/03/16 16:47:08;;;;;;;;;;;;;;;;;;5034589;28;19927;-55
2022/03/16 16:49:34;;;;;;;;;;;;;;;;;;5034922;28;20342;-56
2022/03/16 16:52:00;;;;;;;;;;;;;;;;;;5034693;28;19948;-56
2022/03/16 16:54:28;;;;;;;;;;;;;;;;;;5034881;28;20256;-56
2022/03/16 16:56:55;;;;;;;;;;;;;;;;;;5034606;28;20280;-57
2022/03/16 16:59:21;;;;;;;;;;;;;;;;;;5034586;28;19909;-56
2022/03/16 17:01:47;;;;;;;;;;;;;;;;;;5034224;28;19909;-56
2022/03/16 17:04:13;;;;;;;;;;;;;;;;;;5034659;28;19920;-57